sensor_id;sensor_type;location;lat;lon;timestamp;P1;durP1;ratioP1;P2;durP2;ratioP2
9924;SDS011;5001;51.674;7.868;2023-10-08T00:03:22;13.07;;;3.25;;
9924;SDS011;5001;51.674;7.868;2023-10-08T00:05:55;6.82;;;2.78;;
9924;SDS011;5001;51.674;7.868;2023-10-08T00:08:23;4.80;;;2.90;;
9924;SDS011;5001;51.674;7.868;2023-10-08T00:10:50;5.20;;;3.25;;
9924;SDS011;5001;51.674;7.868;2023-10-08T00:13:17;18.75;;;3.58;;
9924;SDS011;5001;51.674;7.868;2023-10-08T00:15:44;5.43;;;2.83;;
9924;SDS011;5001;51.674;7.868;2023-10-08T00:18:23;4.47;;;2.53;;
9924;SDS011;5001;51.674;7.868;2023-10-08T00:20:50;6.60;;;3.58;;
9924;SDS011;5001;51.674;7.868;2023-10-08T00:23:36;6.85;;;3.30;;
9924;SDS011;5001;51.674;7.868;2023-10-08T00:26:08;5.10;;;2.75;;
9924;SDS011;5001;51.674;7.868;2023-10-08T00:28:35;4.78;;;3.08;;
9924;SDS011;5001;51.674;7.868;2023-10-08T00:31:03;6.85;;;3.00;;
9924;SDS011;5001;51.674;7.868;2023-10-08T00:33:38;4.18;;;3.00;;
9924;SDS011;5001;51.674;7.868;2023-10-08T00:36:06;6.03;;;3.05;;
9924;SDS011;5001;51.674;7.868;2023-10-08T00:38:55;6.97;;;3.15;;
9924;SDS011;5001;51.674;7.868;2023-10-08T00:41:26;7.75;;;3.38;;
9924;SDS011;5001;51.674;7.868;2023-10-08T00:43:59;8.52;;;3.20;;
9924;SDS011;5001;51.674;7.868;2023-10-08T00:46:28;4.40;;;3.00;;
9924;SDS011;5001;51.674;7.868;2023-10-08T00:48:59;5.97;;;3.20;;
9924;SDS011;5001;51.674;7.868;2023-10-08T00:51:54;6.03;;;3.00;;
9924;SDS011;5001;51.674;7.868;2023-10-08T00:54:36;5.28;;;3.17;;
9924;SDS011;5001;51.674;7.868;2023-10-08T00:57:28;7.10;;;3.03;;
9924;SDS011;5001;51.674;7.868;2023-10-08T00:59:56;6.03;;;2.67;;
9924;SDS011;5001;51.674;7.868;2023-10-08T01:02:26;7.75;;;3.65;;
9924;SDS011;5001;51.674;7.868;2023-10-08T01:04:55;5.20;;;3.50;;
9924;SDS011;5001;51.674;7.868;2023-10-08T01:07:23;4.55;;;2.90;;
9924;SDS011;5001;51.674;7.868;2023-10-08T01:09:51;5.35;;;2.60;;
9924;SDS011;5001;51.674;7.868;2023-10-08T01:12:23;5.18;;;3.08;;
9924;SDS011;5001;51.674;7.868;2023-10-08T01:15:00;8.07;;;3.08;;
9924;SDS011;5001;51.674;7.868;2023-10-08T01:17:45;7.97;;;3.13;;
9924;SDS011;5001;51.674;7.868;2023-10-08T01:20:18;5.68;;;3.72;;
9924;SDS011;5001;51.674;7.868;2023-10-08T01:23:10;7.57;;;3.95;;
9924;SDS011;5001;51.674;7.868;2023-10-08T01:25:40;13.23;;;4.30;;
9924;SDS011;5001;51.674;7.868;2023-10-08T01:28:09;5.22;;;3.03;;
9924;SDS011;5001;51.674;7.868;2023-10-08T01:30:59;7.80;;;3.42;;
9924;SDS011;5001;51.674;7.868;2023-10-08T01:33:27;8.00;;;3.75;;
9924;SDS011;5001;51.674;7.868;2023-10-08T01:35:55;4.57;;;2.80;;
9924;SDS011;5001;51.674;7.868;2023-10-08T01:38:30;8.18;;;3.40;;
9924;SDS011;5001;51.674;7.868;2023-10-08T01:40:59;9.75;;;3.67;;
9924;SDS011;5001;51.674;7.868;2023-10-08T01:43:31;8.77;;;4.10;;
9924;SDS011;5001;51.674;7.868;2023-10-08T01:45:58;6.78;;;2.90;;
9924;SDS011;5001;51.674;7.868;2023-10-08T01:48:29;4.72;;;3.15;;
9924;SDS011;5001;51.674;7.868;2023-10-08T01:51:04;6.25;;;3.08;;
9924;SDS011;5001;51.674;7.868;2023-10-08T01:53:37;8.13;;;3.63;;
9924;SDS011;5001;51.674;7.868;2023-10-08T01:56:05;8.30;;;3.35;;
9924;SDS011;5001;51.674;7.868;2023-10-08T01:58:32;7.00;;;3.25;;
9924;SDS011;5001;51.674;7.868;2023-10-08T02:05:02;5.97;;;3.13;;
9924;SDS011;5001;51.674;7.868;2023-10-08T02:07:30;7.85;;;3.13;;
9924;SDS011;5001;51.674;7.868;2023-10-08T02:09:57;8.55;;;3.53;;
9924;SDS011;5001;51.674;7.868;2023-10-08T02:12:24;7.43;;;3.47;;
9924;SDS011;5001;51.674;7.868;2023-10-08T02:14:51;7.93;;;3.50;;
9924;SDS011;5001;51.674;7.868;2023-10-08T02:17:22;5.80;;;3.78;;
9924;SDS011;5001;51.674;7.868;2023-10-08T02:19:52;14.55;;;3.45;;
9924;SDS011;5001;51.674;7.868;2023-10-08T02:22:19;9.27;;;4.00;;
9924;SDS011;5001;51.674;7.868;2023-10-08T02:24:46;5.38;;;3.63;;
9924;SDS011;5001;51.674;7.868;2023-10-08T02:27:14;5.30;;;2.88;;
9924;SDS011;5001;51.674;7.868;2023-10-08T02:29:41;7.93;;;3.60;;
9924;SDS011;5001;51.674;7.868;2023-10-08T02:32:08;9.48;;;3.47;;
9924;SDS011;5001;51.674;7.868;2023-10-08T02:34:35;11.30;;;3.53;;
9924;SDS011;5001;51.674;7.868;2023-10-08T02:37:02;10.38;;;3.70;;
9924;SDS011;5001;51.674;7.868;2023-10-08T02:39:29;10.90;;;4.25;;
9924;SDS011;5001;51.674;7.868;2023-10-08T02:41:58;8.30;;;3.42;;
9924;SDS011;5001;51.674;7.868;2023-10-08T02:44:26;8.23;;;4.00;;
9924;SDS011;5001;51.674;7.868;2023-10-08T02:46:54;6.05;;;3.42;;
9924;SDS011;5001;51.674;7.868;2023-10-08T02:49:21;8.07;;;3.72;;
9924;SDS011;5001;51.674;7.868;2023-10-08T02:51:53;9.55;;;3.80;;
9924;SDS011;5001;51.674;7.868;2023-10-08T02:54:21;11.48;;;4.47;;
9924;SDS011;5001;51.674;7.868;2023-10-08T02:56:51;6.80;;;3.45;;
9924;SDS011;5001;51.674;7.868;2023-10-08T02:59:21;11.02;;;3.85;;
9924;SDS011;5001;51.674;7.868;2023-10-08T03:01:49;7.95;;;3.10;;
9924;SDS011;5001;51.674;7.868;2023-10-08T03:04:16;10.43;;;3.70;;
9924;SDS011;5001;51.674;7.868;2023-10-08T03:06:56;9.90;;;3.70;;
9924;SDS011;5001;51.674;7.868;2023-10-08T03:09:23;6.85;;;3.17;;
9924;SDS011;5001;51.674;7.868;2023-10-08T03:11:55;6.53;;;3.38;;
9924;SDS011;5001;51.674;7.868;2023-10-08T03:14:24;8.60;;;3.25;;
9924;SDS011;5001;51.674;7.868;2023-10-08T03:17:08;9.57;;;3.45;;
9924;SDS011;5001;51.674;7.868;2023-10-08T03:19:35;7.43;;;3.80;;
9924;SDS011;5001;51.674;7.868;2023-10-08T03:22:04;12.25;;;3.92;;
9924;SDS011;5001;51.674;7.868;2023-10-08T03:24:31;7.57;;;3.50;;
9924;SDS011;5001;51.674;7.868;2023-10-08T03:27:01;7.68;;;3.97;;
9924;SDS011;5001;51.674;7.868;2023-10-08T03:29:54;10.57;;;4.57;;
9924;SDS011;5001;51.674;7.868;2023-10-08T03:32:25;14.20;;;4.78;;
9924;SDS011;5001;51.674;7.868;2023-10-08T03:34:53;5.72;;;3.20;;
9924;SDS011;5001;51.674;7.868;2023-10-08T03:37:21;14.18;;;4.15;;
9924;SDS011;5001;51.674;7.868;2023-10-08T03:39:56;6.13;;;3.83;;
9924;SDS011;5001;51.674;7.868;2023-10-08T03:42:45;6.60;;;3.58;;
9924;SDS011;5001;51.674;7.868;2023-10-08T03:45:15;8.52;;;3.95;;
9924;SDS011;5001;51.674;7.868;2023-10-08T03:47:49;8.85;;;3.63;;
9924;SDS011;5001;51.674;7.868;2023-10-08T03:50:32;8.38;;;3.83;;
9924;SDS011;5001;51.674;7.868;2023-10-08T03:53:07;7.07;;;3.45;;
9924;SDS011;5001;51.674;7.868;2023-10-08T03:55:42;11.27;;;4.47;;
9924;SDS011;5001;51.674;7.868;2023-10-08T03:58:10;12.05;;;4.03;;
9924;SDS011;5001;51.674;7.868;2023-10-08T04:00:43;9.50;;;4.70;;
9924;SDS011;5001;51.674;7.868;2023-10-08T04:03:12;11.65;;;5.13;;
9924;SDS011;5001;51.674;7.868;2023-10-08T04:05:39;17.08;;;7.15;;
9924;SDS011;5001;51.674;7.868;2023-10-08T04:08:25;10.70;;;6.75;;
9924;SDS011;5001;51.674;7.868;2023-10-08T04:11:21;9.48;;;5.28;;
9924;SDS011;5001;51.674;7.868;2023-10-08T04:14:02;12.27;;;4.70;;
9924;SDS011;5001;51.674;7.868;2023-10-08T04:16:29;8.75;;;3.90;;
9924;SDS011;5001;51.674;7.868;2023-10-08T04:18:58;5.60;;;3.35;;
9924;SDS011;5001;51.674;7.868;2023-10-08T04:21:29;8.27;;;3.47;;
9924;SDS011;5001;51.674;7.868;2023-10-08T04:24:00;8.13;;;4.70;;
9924;SDS011;5001;51.674;7.868;2023-10-08T04:26:30;6.13;;;4.32;;
9924;SDS011;5001;51.674;7.868;2023-10-08T04:28:58;7.68;;;4.78;;
9924;SDS011;5001;51.674;7.868;2023-10-08T04:31:33;6.43;;;3.65;;
9924;SDS011;5001;51.674;7.868;2023-10-08T04:34:04;6.75;;;4.38;;
9924;SDS011;5001;51.674;7.868;2023-10-08T04:36:52;2.63;;;2.33;;
9924;SDS011;5001;51.674;7.868;2023-10-08T04:39:24;7.30;;;3.70;;
9924;SDS011;5001;51.674;7.868;2023-10-08T04:42:00;2.03;;;1.70;;
9924;SDS011;5001;51.674;7.868;2023-10-08T04:44:38;3.72;;;1.88;;
9924;SDS011;5001;51.674;7.868;2023-10-08T04:47:07;3.13;;;1.80;;
9924;SDS011;5001;51.674;7.868;2023-10-08T04:49:35;1.60;;;1.50;;
9924;SDS011;5001;51.674;7.868;2023-10-08T04:52:12;2.15;;;1.65;;
9924;SDS011;5001;51.674;7.868;2023-10-08T04:54:41;3.22;;;2.72;;
9924;SDS011;5001;51.674;7.868;2023-10-08T04:57:18;3.13;;;2.22;;
9924;SDS011;5001;51.674;7.868;2023-10-08T04:59:49;1.23;;;1.13;;
9924;SDS011;5001;51.674;7.868;2023-10-08T05:02:17;2.20;;;1.75;;
9924;SDS011;5001;51.674;7.868;2023-10-08T05:05:16;0.70;;;0.70;;
9924;SDS011;5001;51.674;7.868;2023-10-08T05:07:43;0.82;;;0.82;;
9924;SDS011;5001;51.674;7.868;2023-10-08T05:10:13;0.88;;;0.88;;
9924;SDS011;5001;51.674;7.868;2023-10-08T05:12:53;2.92;;;2.00;;
9924;SDS011;5001;51.674;7.868;2023-10-08T05:15:29;1.40;;;1.30;;
9924;SDS011;5001;51.674;7.868;2023-10-08T05:18:08;2.50;;;1.73;;
9924;SDS011;5001;51.674;7.868;2023-10-08T05:20:40;1.63;;;1.27;;
9924;SDS011;5001;51.674;7.868;2023-10-08T05:23:17;1.92;;;1.20;;
9924;SDS011;5001;51.674;7.868;2023-10-08T05:25:52;1.77;;;1.60;;
9924;SDS011;5001;51.674;7.868;2023-10-08T05:28:33;2.13;;;1.50;;
9924;SDS011;5001;51.674;7.868;2023-10-08T05:31:08;4.03;;;1.70;;
9924;SDS011;5001;51.674;7.868;2023-10-08T05:33:42;4.03;;;3.33;;
9924;SDS011;5001;51.674;7.868;2023-10-08T05:36:12;13.35;;;11.50;;
9924;SDS011;5001;51.674;7.868;2023-10-08T05:38:45;15.30;;;12.88;;
9924;SDS011;5001;51.674;7.868;2023-10-08T05:41:17;11.85;;;9.85;;
9924;SDS011;5001;51.674;7.868;2023-10-08T05:44:07;11.20;;;9.25;;
9924;SDS011;5001;51.674;7.868;2023-10-08T05:46:41;9.40;;;7.90;;
9924;SDS011;5001;51.674;7.868;2023-10-08T05:49:23;7.87;;;6.63;;
9924;SDS011;5001;51.674;7.868;2023-10-08T05:52:05;5.80;;;5.20;;
9924;SDS011;5001;51.674;7.868;2023-10-08T05:54:32;4.55;;;4.15;;
9924;SDS011;5001;51.674;7.868;2023-10-08T06:02:40;3.47;;;2.75;;
9924;SDS011;5001;51.674;7.868;2023-10-08T06:05:13;3.03;;;2.53;;
9924;SDS011;5001;51.674;7.868;2023-10-08T06:07:41;2.17;;;1.98;;
9924;SDS011;5001;51.674;7.868;2023-10-08T06:10:28;2.00;;;1.50;;
9924;SDS011;5001;51.674;7.868;2023-10-08T06:13:03;3.38;;;2.35;;
9924;SDS011;5001;51.674;7.868;2023-10-08T06:15:56;5.80;;;1.88;;
9924;SDS011;5001;51.674;7.868;2023-10-08T06:21:00;1.35;;;1.20;;
9924;SDS011;5001;51.674;7.868;2023-10-08T06:23:36;1.40;;;1.30;;
9924;SDS011;5001;51.674;7.868;2023-10-08T06:26:06;1.90;;;1.70;;
9924;SDS011;5001;51.674;7.868;2023-10-08T06:28:43;1.47;;;1.20;;
9924;SDS011;5001;51.674;7.868;2023-10-08T06:31:10;3.17;;;1.95;;
9924;SDS011;5001;51.674;7.868;2023-10-08T06:33:39;1.83;;;1.70;;
9924;SDS011;5001;51.674;7.868;2023-10-08T06:36:08;2.15;;;1.75;;
9924;SDS011;5001;51.674;7.868;2023-10-08T06:38:47;2.00;;;1.80;;
9924;SDS011;5001;51.674;7.868;2023-10-08T06:41:17;3.03;;;1.30;;
9924;SDS011;5001;51.674;7.868;2023-10-08T06:44:04;1.83;;;1.60;;
9924;SDS011;5001;51.674;7.868;2023-10-08T06:46:41;1.20;;;1.10;;
9924;SDS011;5001;51.674;7.868;2023-10-08T06:49:09;1.20;;;1.03;;
9924;SDS011;5001;51.674;7.868;2023-10-08T06:51:41;1.87;;;1.10;;
9924;SDS011;5001;51.674;7.868;2023-10-08T06:54:11;1.50;;;1.40;;
9924;SDS011;5001;51.674;7.868;2023-10-08T06:56:43;1.83;;;1.30;;
9924;SDS011;5001;51.674;7.868;2023-10-08T06:59:19;1.50;;;1.40;;
9924;SDS011;5001;51.674;7.868;2023-10-08T07:01:50;1.23;;;0.87;;
9924;SDS011;5001;51.674;7.868;2023-10-08T07:04:18;3.40;;;1.10;;
9924;SDS011;5001;51.674;7.868;2023-10-08T07:06:49;1.00;;;0.90;;
9924;SDS011;5001;51.674;7.868;2023-10-08T07:09:17;0.80;;;0.77;;
9924;SDS011;5001;51.674;7.868;2023-10-08T07:12:10;2.57;;;1.00;;
9924;SDS011;5001;51.674;7.868;2023-10-08T07:14:40;2.13;;;0.77;;
9924;SDS011;5001;51.674;7.868;2023-10-08T07:17:08;4.80;;;1.97;;
9924;SDS011;5001;51.674;7.868;2023-10-08T07:19:41;1.77;;;0.87;;
9924;SDS011;5001;51.674;7.868;2023-10-08T07:22:13;4.80;;;1.40;;
9924;SDS011;5001;51.674;7.868;2023-10-08T07:24:52;5.80;;;1.67;;
9924;SDS011;5001;51.674;7.868;2023-10-08T07:27:20;3.13;;;1.27;;
9924;SDS011;5001;51.674;7.868;2023-10-08T07:29:57;11.90;;;1.77;;
9924;SDS011;5001;51.674;7.868;2023-10-08T07:32:27;2.70;;;1.27;;
9924;SDS011;5001;51.674;7.868;2023-10-08T07:34:57;1.97;;;1.10;;
9924;SDS011;5001;51.674;7.868;2023-10-08T07:37:41;2.63;;;1.70;;
9924;SDS011;5001;51.674;7.868;2023-10-08T07:40:09;2.13;;;1.10;;
9924;SDS011;5001;51.674;7.868;2023-10-08T07:42:38;5.87;;;1.47;;
9924;SDS011;5001;51.674;7.868;2023-10-08T07:45:06;1.37;;;1.20;;
9924;SDS011;5001;51.674;7.868;2023-10-08T07:47:33;2.73;;;1.07;;
9924;SDS011;5001;51.674;7.868;2023-10-08T07:50:01;1.13;;;1.00;;
9924;SDS011;5001;51.674;7.868;2023-10-08T07:52:38;4.77;;;1.20;;
9924;SDS011;5001;51.674;7.868;2023-10-08T07:55:06;3.43;;;1.53;;
9924;SDS011;5001;51.674;7.868;2023-10-08T07:57:33;4.13;;;1.30;;
9924;SDS011;5001;51.674;7.868;2023-10-08T08:00:00;5.07;;;1.03;;
9924;SDS011;5001;51.674;7.868;2023-10-08T08:02:44;1.47;;;0.93;;
9924;SDS011;5001;51.674;7.868;2023-10-08T08:05:12;1.70;;;1.00;;
9924;SDS011;5001;51.674;7.868;2023-10-08T08:07:44;4.10;;;1.10;;
9924;SDS011;5001;51.674;7.868;2023-10-08T08:10:16;2.27;;;1.57;;
9924;SDS011;5001;51.674;7.868;2023-10-08T08:12:44;6.23;;;1.67;;
9924;SDS011;5001;51.674;7.868;2023-10-08T08:15:12;4.47;;;1.13;;
9924;SDS011;5001;51.674;7.868;2023-10-08T08:17:42;7.03;;;1.10;;
9924;SDS011;5001;51.674;7.868;2023-10-08T08:20:10;3.47;;;1.30;;
9924;SDS011;5001;51.674;7.868;2023-10-08T08:23:01;3.87;;;0.90;;
9924;SDS011;5001;51.674;7.868;2023-10-08T08:25:39;1.00;;;0.90;;
9924;SDS011;5001;51.674;7.868;2023-10-08T08:28:43;1.90;;;1.07;;
9924;SDS011;5001;51.674;7.868;2023-10-08T08:31:14;6.17;;;1.57;;
9924;SDS011;5001;51.674;7.868;2023-10-08T08:33:41;6.60;;;1.90;;
9924;SDS011;5001;51.674;7.868;2023-10-08T08:36:23;4.60;;;1.37;;
9924;SDS011;5001;51.674;7.868;2023-10-08T08:38:50;5.57;;;1.33;;
9924;SDS011;5001;51.674;7.868;2023-10-08T08:41:21;3.53;;;1.30;;
9924;SDS011;5001;51.674;7.868;2023-10-08T08:46:31;5.53;;;1.00;;
9924;SDS011;5001;51.674;7.868;2023-10-08T08:49:05;3.43;;;0.90;;
9924;SDS011;5001;51.674;7.868;2023-10-08T08:51:38;3.40;;;1.60;;
9924;SDS011;5001;51.674;7.868;2023-10-08T08:54:05;5.60;;;1.30;;
9924;SDS011;5001;51.674;7.868;2023-10-08T08:56:33;3.70;;;0.90;;
9924;SDS011;5001;51.674;7.868;2023-10-08T08:59:03;3.33;;;1.20;;
9924;SDS011;5001;51.674;7.868;2023-10-08T09:01:31;1.40;;;0.80;;
9924;SDS011;5001;51.674;7.868;2023-10-08T09:04:00;3.23;;;1.10;;
9924;SDS011;5001;51.674;7.868;2023-10-08T09:06:35;2.30;;;0.90;;
9924;SDS011;5001;51.674;7.868;2023-10-08T09:09:07;4.80;;;1.17;;
9924;SDS011;5001;51.674;7.868;2023-10-08T09:11:50;4.30;;;1.20;;
9924;SDS011;5001;51.674;7.868;2023-10-08T09:14:21;3.03;;;0.93;;
9924;SDS011;5001;51.674;7.868;2023-10-08T09:16:55;3.27;;;1.30;;
9924;SDS011;5001;51.674;7.868;2023-10-08T09:19:26;3.27;;;1.10;;
9924;SDS011;5001;51.674;7.868;2023-10-08T09:22:08;1.70;;;1.00;;
9924;SDS011;5001;51.674;7.868;2023-10-08T09:24:38;5.57;;;1.23;;
9924;SDS011;5001;51.674;7.868;2023-10-08T09:27:06;2.03;;;0.90;;
9924;SDS011;5001;51.674;7.868;2023-10-08T09:29:35;2.63;;;0.83;;
9924;SDS011;5001;51.674;7.868;2023-10-08T09:32:10;4.77;;;1.80;;
9924;SDS011;5001;51.674;7.868;2023-10-08T09:34:51;1.93;;;1.40;;
9924;SDS011;5001;51.674;7.868;2023-10-08T09:37:18;1.50;;;1.00;;
9924;SDS011;5001;51.674;7.868;2023-10-08T09:39:48;3.50;;;1.10;;
9924;SDS011;5001;51.674;7.868;2023-10-08T09:42:18;1.97;;;0.97;;
9924;SDS011;5001;51.674;7.868;2023-10-08T09:44:49;1.10;;;0.83;;
9924;SDS011;5001;51.674;7.868;2023-10-08T09:47:19;2.27;;;0.83;;
9924;SDS011;5001;51.674;7.868;2023-10-08T09:49:53;3.57;;;1.10;;
9924;SDS011;5001;51.674;7.868;2023-10-08T09:52:33;2.70;;;1.00;;
9924;SDS011;5001;51.674;7.868;2023-10-08T09:55:08;3.33;;;1.00;;
9924;SDS011;5001;51.674;7.868;2023-10-08T09:57:39;3.70;;;1.00;;
9924;SDS011;5001;51.674;7.868;2023-10-08T10:00:06;1.37;;;1.07;;
9924;SDS011;5001;51.674;7.868;2023-10-08T10:02:41;2.28;;;1.30;;
9924;SDS011;5001;51.674;7.868;2023-10-08T10:05:19;2.95;;;1.20;;
9924;SDS011;5001;51.674;7.868;2023-10-08T10:07:50;3.45;;;1.55;;
9924;SDS011;5001;51.674;7.868;2023-10-08T10:10:25;1.83;;;1.10;;
9924;SDS011;5001;51.674;7.868;2023-10-08T10:12:56;1.00;;;0.93;;
9924;SDS011;5001;51.674;7.868;2023-10-08T10:15:26;4.40;;;1.38;;
9924;SDS011;5001;51.674;7.868;2023-10-08T10:17:58;2.97;;;1.23;;
9924;SDS011;5001;51.674;7.868;2023-10-08T10:20:39;2.33;;;1.33;;
9924;SDS011;5001;51.674;7.868;2023-10-08T10:23:50;1.40;;;1.17;;
9924;SDS011;5001;51.674;7.868;2023-10-08T10:26:04;6.68;;;1.63;;
9924;SDS011;5001;51.674;7.868;2023-10-08T10:28:36;3.03;;;1.40;;
9924;SDS011;5001;51.674;7.868;2023-10-08T10:31:04;2.25;;;1.40;;
9924;SDS011;5001;51.674;7.868;2023-10-08T10:33:31;3.22;;;1.27;;
9924;SDS011;5001;51.674;7.868;2023-10-08T10:36:03;5.50;;;1.50;;
9924;SDS011;5001;51.674;7.868;2023-10-08T10:38:35;3.40;;;1.30;;
9924;SDS011;5001;51.674;7.868;2023-10-08T10:41:03;1.73;;;0.80;;
9924;SDS011;5001;51.674;7.868;2023-10-08T10:43:35;7.63;;;1.30;;
9924;SDS011;5001;51.674;7.868;2023-10-08T10:46:06;9.32;;;1.77;;
9924;SDS011;5001;51.674;7.868;2023-10-08T10:48:57;1.83;;;1.48;;
9924;SDS011;5001;51.674;7.868;2023-10-08T10:51:46;2.42;;;1.05;;
9924;SDS011;5001;51.674;7.868;2023-10-08T10:54:15;6.90;;;1.17;;
9924;SDS011;5001;51.674;7.868;2023-10-08T10:56:50;2.95;;;1.10;;
9924;SDS011;5001;51.674;7.868;2023-10-08T10:59:30;9.48;;;1.85;;
9924;SDS011;5001;51.674;7.868;2023-10-08T11:02:08;1.65;;;1.20;;
9924;SDS011;5001;51.674;7.868;2023-10-08T11:04:35;2.60;;;1.20;;
9924;SDS011;5001;51.674;7.868;2023-10-08T11:07:15;5.28;;;1.25;;
9924;SDS011;5001;51.674;7.868;2023-10-08T11:09:44;2.38;;;0.95;;
9924;SDS011;5001;51.674;7.868;2023-10-08T11:12:12;4.97;;;1.40;;
9924;SDS011;5001;51.674;7.868;2023-10-08T11:14:48;4.05;;;1.13;;
9924;SDS011;5001;51.674;7.868;2023-10-08T11:17:23;1.35;;;1.25;;
9924;SDS011;5001;51.674;7.868;2023-10-08T11:19:54;3.17;;;1.30;;
9924;SDS011;5001;51.674;7.868;2023-10-08T11:22:21;3.80;;;1.38;;
9924;SDS011;5001;51.674;7.868;2023-10-08T11:24:49;2.03;;;1.20;;
9924;SDS011;5001;51.674;7.868;2023-10-08T11:27:23;2.03;;;1.63;;
9924;SDS011;5001;51.674;7.868;2023-10-08T11:30:02;6.78;;;1.35;;
9924;SDS011;5001;51.674;7.868;2023-10-08T11:32:38;3.67;;;1.58;;
9924;SDS011;5001;51.674;7.868;2023-10-08T11:35:09;3.83;;;1.13;;
9924;SDS011;5001;51.674;7.868;2023-10-08T11:37:46;3.42;;;1.52;;
9924;SDS011;5001;51.674;7.868;2023-10-08T11:40:24;4.72;;;1.73;;
9924;SDS011;5001;51.674;7.868;2023-10-08T11:42:56;1.73;;;1.40;;
9924;SDS011;5001;51.674;7.868;2023-10-08T11:45:25;1.75;;;1.20;;
9924;SDS011;5001;51.674;7.868;2023-10-08T11:47:53;3.90;;;1.35;;
9924;SDS011;5001;51.674;7.868;2023-10-08T11:50:29;1.38;;;1.20;;
9924;SDS011;5001;51.674;7.868;2023-10-08T11:53:01;3.42;;;1.65;;
9924;SDS011;5001;51.674;7.868;2023-10-08T11:55:30;3.47;;;1.30;;
9924;SDS011;5001;51.674;7.868;2023-10-08T11:58:03;2.00;;;1.23;;
9924;SDS011;5001;51.674;7.868;2023-10-08T12:00:41;4.07;;;1.30;;
9924;SDS011;5001;51.674;7.868;2023-10-08T12:03:15;3.53;;;1.50;;
9924;SDS011;5001;51.674;7.868;2023-10-08T12:05:50;1.58;;;1.20;;
9924;SDS011;5001;51.674;7.868;2023-10-08T12:08:26;2.83;;;1.25;;
9924;SDS011;5001;51.674;7.868;2023-10-08T12:10:55;1.63;;;1.20;;
9924;SDS011;5001;51.674;7.868;2023-10-08T12:13:22;1.77;;;1.20;;
9924;SDS011;5001;51.674;7.868;2023-10-08T12:15:54;3.92;;;1.40;;
9924;SDS011;5001;51.674;7.868;2023-10-08T12:18:47;3.75;;;1.50;;
9924;SDS011;5001;51.674;7.868;2023-10-08T12:21:16;2.38;;;1.15;;
9924;SDS011;5001;51.674;7.868;2023-10-08T12:23:44;1.42;;;1.20;;
9924;SDS011;5001;51.674;7.868;2023-10-08T12:26:13;4.18;;;1.63;;
9924;SDS011;5001;51.674;7.868;2023-10-08T12:28:46;3.10;;;1.23;;
9924;SDS011;5001;51.674;7.868;2023-10-08T12:31:20;3.38;;;1.02;;
9924;SDS011;5001;51.674;7.868;2023-10-08T12:33:53;2.10;;;1.35;;
9924;SDS011;5001;51.674;7.868;2023-10-08T12:36:23;1.63;;;1.20;;
9924;SDS011;5001;51.674;7.868;2023-10-08T12:38:50;2.72;;;1.42;;
9924;SDS011;5001;51.674;7.868;2023-10-08T12:41:24;2.60;;;1.23;;
9924;SDS011;5001;51.674;7.868;2023-10-08T12:43:55;1.95;;;1.17;;
9924;SDS011;5001;51.674;7.868;2023-10-08T12:46:27;1.75;;;1.10;;
9924;SDS011;5001;51.674;7.868;2023-10-08T12:48:57;1.58;;;1.08;;
9924;SDS011;5001;51.674;7.868;2023-10-08T12:51:28;1.27;;;1.15;;
9924;SDS011;5001;51.674;7.868;2023-10-08T12:53:59;5.20;;;1.60;;
9924;SDS011;5001;51.674;7.868;2023-10-08T12:56:34;2.20;;;1.30;;
9924;SDS011;5001;51.674;7.868;2023-10-08T12:59:02;4.55;;;1.30;;
9924;SDS011;5001;51.674;7.868;2023-10-08T13:01:33;2.47;;;0.90;;
9924;SDS011;5001;51.674;7.868;2023-10-08T13:04:02;1.77;;;1.10;;
9924;SDS011;5001;51.674;7.868;2023-10-08T13:06:34;1.27;;;1.17;;
9924;SDS011;5001;51.674;7.868;2023-10-08T13:09:04;1.48;;;1.23;;
9924;SDS011;5001;51.674;7.868;2023-10-08T13:11:39;2.40;;;1.13;;
9924;SDS011;5001;51.674;7.868;2023-10-08T13:14:07;1.65;;;1.20;;
9924;SDS011;5001;51.674;7.868;2023-10-08T13:16:34;3.08;;;1.50;;
9924;SDS011;5001;51.674;7.868;2023-10-08T13:19:04;2.28;;;1.33;;
9924;SDS011;5001;51.674;7.868;2023-10-08T13:21:34;3.90;;;1.20;;
9924;SDS011;5001;51.674;7.868;2023-10-08T13:24:03;2.42;;;1.20;;
9924;SDS011;5001;51.674;7.868;2023-10-08T13:26:35;1.27;;;1.10;;
9924;SDS011;5001;51.674;7.868;2023-10-08T13:29:06;1.17;;;1.08;;
9924;SDS011;5001;51.674;7.868;2023-10-08T13:31:36;1.27;;;1.00;;
9924;SDS011;5001;51.674;7.868;2023-10-08T13:34:03;1.15;;;1.05;;
9924;SDS011;5001;51.674;7.868;2023-10-08T13:36:36;4.93;;;1.25;;
9924;SDS011;5001;51.674;7.868;2023-10-08T13:39:05;3.45;;;1.40;;
9924;SDS011;5001;51.674;7.868;2023-10-08T13:41:36;1.25;;;1.15;;
9924;SDS011;5001;51.674;7.868;2023-10-08T13:44:05;1.90;;;1.25;;
9924;SDS011;5001;51.674;7.868;2023-10-08T13:46:32;1.45;;;1.10;;
9924;SDS011;5001;51.674;7.868;2023-10-08T13:49:03;1.38;;;1.08;;
9924;SDS011;5001;51.674;7.868;2023-10-08T13:51:32;2.30;;;1.23;;
9924;SDS011;5001;51.674;7.868;2023-10-08T13:54:01;3.65;;;1.20;;
9924;SDS011;5001;51.674;7.868;2023-10-08T13:56:33;1.10;;;1.00;;
9924;SDS011;5001;51.674;7.868;2023-10-08T13:59:00;1.77;;;1.00;;
9924;SDS011;5001;51.674;7.868;2023-10-08T14:01:33;1.33;;;1.20;;
9924;SDS011;5001;51.674;7.868;2023-10-08T14:04:01;1.25;;;1.10;;
9924;SDS011;5001;51.674;7.868;2023-10-08T14:06:33;1.58;;;1.17;;
9924;SDS011;5001;51.674;7.868;2023-10-08T14:09:01;1.67;;;1.15;;
9924;SDS011;5001;51.674;7.868;2023-10-08T14:11:34;2.15;;;1.50;;
9924;SDS011;5001;51.674;7.868;2023-10-08T14:14:01;1.40;;;1.30;;
9924;SDS011;5001;51.674;7.868;2023-10-08T14:16:34;1.30;;;1.00;;
9924;SDS011;5001;51.674;7.868;2023-10-08T14:19:01;3.28;;;1.48;;
9924;SDS011;5001;51.674;7.868;2023-10-08T14:21:31;4.65;;;1.30;;
9924;SDS011;5001;51.674;7.868;2023-10-08T14:24:03;1.55;;;1.45;;
9924;SDS011;5001;51.674;7.868;2023-10-08T14:26:32;3.65;;;2.25;;
9924;SDS011;5001;51.674;7.868;2023-10-08T14:29:03;2.92;;;2.15;;
9924;SDS011;5001;51.674;7.868;2023-10-08T14:31:43;3.60;;;1.63;;
9924;SDS011;5001;51.674;7.868;2023-10-08T14:34:15;8.00;;;3.75;;
9924;SDS011;5001;51.674;7.868;2023-10-08T14:36:43;6.05;;;3.20;;
9924;SDS011;5001;51.674;7.868;2023-10-08T14:39:33;3.22;;;2.25;;
9924;SDS011;5001;51.674;7.868;2023-10-08T14:42:26;4.75;;;3.30;;
9924;SDS011;5001;51.674;7.868;2023-10-08T14:45:11;5.10;;;3.42;;
9924;SDS011;5001;51.674;7.868;2023-10-08T14:47:40;4.10;;;2.15;;
9924;SDS011;5001;51.674;7.868;2023-10-08T14:50:08;3.92;;;1.40;;
9924;SDS011;5001;51.674;7.868;2023-10-08T14:52:43;2.75;;;1.38;;
9924;SDS011;5001;51.674;7.868;2023-10-08T14:55:10;5.25;;;2.72;;
9924;SDS011;5001;51.674;7.868;2023-10-08T14:57:42;4.57;;;2.35;;
9924;SDS011;5001;51.674;7.868;2023-10-08T15:00:09;5.82;;;2.85;;
9924;SDS011;5001;51.674;7.868;2023-10-08T15:02:37;4.45;;;2.85;;
9924;SDS011;5001;51.674;7.868;2023-10-08T15:05:05;2.17;;;1.48;;
9924;SDS011;5001;51.674;7.868;2023-10-08T15:07:33;4.47;;;1.98;;
9924;SDS011;5001;51.674;7.868;2023-10-08T15:10:02;2.13;;;1.40;;
9924;SDS011;5001;51.674;7.868;2023-10-08T15:12:31;1.30;;;1.20;;
9924;SDS011;5001;51.674;7.868;2023-10-08T15:15:01;2.88;;;1.80;;
9924;SDS011;5001;51.674;7.868;2023-10-08T15:17:40;1.33;;;1.23;;
9924;SDS011;5001;51.674;7.868;2023-10-08T15:20:09;3.25;;;1.17;;
9924;SDS011;5001;51.674;7.868;2023-10-08T15:22:41;3.92;;;1.40;;
9924;SDS011;5001;51.674;7.868;2023-10-08T15:25:13;2.10;;;1.05;;
9924;SDS011;5001;51.674;7.868;2023-10-08T15:27:44;2.75;;;2.08;;
9924;SDS011;5001;51.674;7.868;2023-10-08T15:30:14;7.50;;;3.45;;
9924;SDS011;5001;51.674;7.868;2023-10-08T15:32:49;3.72;;;1.90;;
9924;SDS011;5001;51.674;7.868;2023-10-08T15:35:17;2.50;;;1.38;;
9924;SDS011;5001;51.674;7.868;2023-10-08T15:37:51;3.67;;;1.45;;
9924;SDS011;5001;51.674;7.868;2023-10-08T15:40:18;4.30;;;2.00;;
9924;SDS011;5001;51.674;7.868;2023-10-08T15:42:48;3.90;;;1.73;;
9924;SDS011;5001;51.674;7.868;2023-10-08T15:45:18;2.58;;;1.58;;
9924;SDS011;5001;51.674;7.868;2023-10-08T15:47:47;2.55;;;1.50;;
9924;SDS011;5001;51.674;7.868;2023-10-08T15:50:18;6.03;;;4.05;;
9924;SDS011;5001;51.674;7.868;2023-10-08T15:52:52;4.45;;;3.40;;
9924;SDS011;5001;51.674;7.868;2023-10-08T15:55:21;10.38;;;6.13;;
9924;SDS011;5001;51.674;7.868;2023-10-08T15:57:50;10.95;;;6.38;;
9924;SDS011;5001;51.674;7.868;2023-10-08T16:00:17;3.95;;;1.75;;
9924;SDS011;5001;51.674;7.868;2023-10-08T16:02:45;3.42;;;1.83;;
9924;SDS011;5001;51.674;7.868;2023-10-08T16:05:14;1.88;;;1.52;;